Station Historical Data
Daily Summary for April 13, 2017 Units:  Both    English   Metric
« Previous Day
Next Day »
Daily Weekly Monthly Yearly Custom
  High: Low: Average:
Temperature: 84.2 °F /  29 °C 55.7 °F /  13.2 °C 68.9 °F /  20.5 °C
Dew Point: 59.1 °F /  15.1 °C 50.2 °F /  10.1 °C 54.4 °F /  12.4 °C
Humidity: 92% 35% 64%
Wind Speed: 1.0mph /  1.6km/h - 0.1mph /  0.2km/h
Wind Gust: 5.0mph /  8km/h - -
Wind- - West
Pressure: 30.30 in /  1026 hPa 30.17 in /  1021.6 hPa -
Precipitation: 0.00 in /  0 mm    
Historical Graphs
 
 
Tabular Data for April 13, 2017
Time Temperature Dew Point Pressure Wind Wind Speed Wind Gust Humidity Rainfall Rate (Hourly) solar Conditions
00:00 61.2 °F /  16.2 °C 54.6 °F /  12.6 °C 30.24in /  1023.9hPa Calm     79% 0.00in /  0mm WeatherDisplay:10.37 W/m2 CLR
00:15 60.7 °F /  15.9 °C 54.5 °F /  12.5 °C 30.25in /  1024.3hPa Calm     80% 0.00in /  0mm WeatherDisplay:10.37 W/m2 CLR
00:30 60.5 °F /  15.8 °C 54.3 °F /  12.4 °C 30.25in /  1024.3hPa Calm     80% 0.00in /  0mm WeatherDisplay:10.37 W/m2 CLR
00:45 60.3 °F /  15.7 °C 54.1 °F /  12.3 °C 30.24in /  1023.9hPa Calm     80% 0.00in /  0mm WeatherDisplay:10.37 W/m2 CLR
01:00 60.0 °F /  15.6 °C 54.2 °F /  12.3 °C 30.24in /  1023.9hPa Calm     81% 0.00in /  0mm WeatherDisplay:10.37 W/m2 CLR
01:15 60.1 °F /  15.6 °C 54.9 °F /  12.7 °C 30.24in /  1023.9hPa Calm     83% 0.00in /  0mm WeatherDisplay:10.37 W/m2 CLR
01:30 60.3 °F /  15.7 °C 54.8 °F /  12.7 °C 30.24in /  1023.9hPa Calm     82% 0.00in /  0mm WeatherDisplay:10.37 W/m2 CLR
01:45 59.7 °F /  15.4 °C 54.2 °F /  12.3 °C 30.24in /  1023.9hPa Calm     82% 0.00in /  0mm WeatherDisplay:10.37 W/m2 CLR
02:00 59.3 °F /  15.2 °C 54.1 °F /  12.3 °C 30.24in /  1023.9hPa Calm     83% 0.00in /  0mm WeatherDisplay:10.37 W/m2 CLR
02:15 59.1 °F /  15.1 °C 54.6 °F /  12.6 °C 30.24in /  1023.9hPa Calm     85% 0.00in /  0mm WeatherDisplay:10.37 W/m2 CLR
02:30 58.8 °F /  14.9 °C 54.3 °F /  12.4 °C 30.23in /  1023.6hPa Calm     85% 0.00in /  0mm WeatherDisplay:10.37 W/m2 CLR
02:45 58.7 °F /  14.8 °C 54.5 °F /  12.5 °C 30.23in /  1023.6hPa Calm     86% 0.00in /  0mm WeatherDisplay:10.37 W/m2 CLR
03:00 59.2 °F /  15.1 °C 55.3 °F /  12.9 °C 30.23in /  1023.6hPa Calm     87% 0.00in /  0mm WeatherDisplay:10.37 W/m2 CLR
03:15 58.7 °F /  14.8 °C 54.6 °F /  12.6 °C 30.23in /  1023.6hPa Calm     86% 0.00in /  0mm WeatherDisplay:10.37 W/m2 CLR
03:30 58.3 °F /  14.6 °C 54.1 °F /  12.3 °C 30.23in /  1023.6hPa Calm     86% 0.00in /  0mm WeatherDisplay:10.37 W/m2 CLR
03:45 57.7 °F /  14.3 °C 53.8 °F /  12.1 °C 30.23in /  1023.6hPa Calm     87% 0.00in /  0mm WeatherDisplay:10.37 W/m2 CLR
04:00 57.4 °F /  14.1 °C 53.6 °F /  12 °C 30.23in /  1023.6hPa Calm     87% 0.00in /  0mm WeatherDisplay:10.37 W/m2 CLR
04:15 57.4 °F /  14.1 °C 53.6 °F /  12 °C 30.22in /  1023.2hPa Calm     87% 0.00in /  0mm WeatherDisplay:10.37 W/m2 CLR
04:30 57.4 °F /  14.1 °C 53.6 °F /  12 °C 30.22in /  1023.2hPa Calm     87% 0.00in /  0mm WeatherDisplay:10.37 W/m2 CLR
04:45 57.4 °F /  14.1 °C 53.6 °F /  12 °C 30.22in /  1023.2hPa Calm     87% 0.00in /  0mm WeatherDisplay:10.37 W/m2 CLR
05:00 57.4 °F /  14.1 °C 53.6 °F /  12 °C 30.23in /  1023.6hPa Calm     87% 0.00in /  0mm WeatherDisplay:10.37 W/m2 CLR
05:15 57.4 °F /  14.1 °C 53.6 °F /  12 °C 30.23in /  1023.6hPa Calm     87% 0.00in /  0mm WeatherDisplay:10.37 W/m2 CLR
05:30 57.4 °F /  14.1 °C 53.6 °F /  12 °C 30.23in /  1023.6hPa Calm     87% 0.00in /  0mm WeatherDisplay:10.37 W/m2 CLR
05:45 57.4 °F /  14.1 °C 53.6 °F /  12 °C 30.23in /  1023.6hPa Calm     87% 0.00in /  0mm WeatherDisplay:10.37 W/m2 CLR
06:00 57.4 °F /  14.1 °C 53.6 °F /  12 °C 30.23in /  1023.6hPa Calm     87% 0.00in /  0mm WeatherDisplay:10.37 W/m2 CLR
06:15 57.4 °F /  14.1 °C 53.6 °F /  12 °C 30.24in /  1023.9hPa Calm     87% 0.00in /  0mm WeatherDisplay:10.37 W/m2 CLR
06:30 57.4 °F /  14.1 °C 53.6 °F /  12 °C 30.25in /  1024.3hPa Calm     87% 0.00in /  0mm WeatherDisplay:10.37 W/m2 CLR
06:45 57.4 °F /  14.1 °C 53.6 °F /  12 °C 30.25in /  1024.3hPa Calm     87% 0.00in /  0mm WeatherDisplay:10.37 W/m2 CLR
07:00 57.4 °F /  14.1 °C 53.6 °F /  12 °C 30.26in /  1024.6hPa Calm     87% 0.00in /  0mm WeatherDisplay:10.37 W/m2 CLR
07:15 57.4 °F /  14.1 °C 53.6 °F /  12 °C 30.26in /  1024.6hPa Calm     87% 0.00in /  0mm WeatherDisplay:10.37 W/m2 CLR
07:30 57.4 °F /  14.1 °C 53.6 °F /  12 °C 30.27in /  1024.9hPa Calm     87% 0.00in /  0mm WeatherDisplay:10.37 W/m2 CLR
07:45 57.4 °F /  14.1 °C 53.6 °F /  12 °C 30.27in /  1024.9hPa Calm     87% 0.00in /  0mm WeatherDisplay:10.37 W/m2 CLR
08:00 55.7 °F /  13.2 °C 53.4 °F /  11.9 °C 30.27in /  1024.9hPa Calm     92% 0.00in /  0mm WeatherDisplay:10.37 W/m2 CLR
08:15 57.0 °F /  13.9 °C 54.6 °F /  12.6 °C 30.28in /  1025.3hPa Calm     92% 0.00in /  0mm WeatherDisplay:10.37 W/m2 CLR
08:30 58.3 °F /  14.6 °C 55.6 °F /  13.1 °C 30.28in /  1025.3hPa Calm     91% 0.00in /  0mm WeatherDisplay:10.37 W/m2 CLR
08:45 60.0 °F /  15.6 °C 56.5 °F /  13.6 °C 30.28in /  1025.3hPa Calm     88% 0.00in /  0mm WeatherDisplay:10.37 W/m2 CLR
09:00 62.3 °F /  16.8 °C 56.7 °F /  13.7 °C 30.28in /  1025.3hPa Calm   1.0mph /  1.6km/h 82% 0.00in /  0mm WeatherDisplay:10.37 W/m2 CLR
09:15 64.6 °F /  18.1 °C 56.5 °F /  13.6 °C 30.28in /  1025.3hPa Calm   1.0mph /  1.6km/h 75% 0.00in /  0mm WeatherDisplay:10.37 W/m2 CLR
09:30 65.9 °F /  18.8 °C 57.3 °F /  14.1 °C 30.28in /  1025.3hPa Calm   2.0mph /  3.2km/h 74% 0.00in /  0mm WeatherDisplay:10.37 W/m2 CLR
09:45 68.0 °F /  20 °C 57.8 °F /  14.3 °C 30.28in /  1025.3hPa Calm   2.0mph /  3.2km/h 70% 0.00in /  0mm WeatherDisplay:10.37 W/m2 CLR
10:00 69.7 °F /  20.9 °C 57.4 °F /  14.1 °C 30.29in /  1025.6hPa Calm   2.0mph /  3.2km/h 65% 0.00in /  0mm WeatherDisplay:10.37 W/m2 CLR
10:15 71.6 °F /  22 °C 57.9 °F /  14.4 °C 30.29in /  1025.6hPa Calm   2.0mph /  3.2km/h 62% 0.00in /  0mm WeatherDisplay:10.37 W/m2 CLR
10:30 72.1 °F /  22.3 °C 57.9 °F /  14.4 °C 30.29in /  1025.6hPa Calm   1.0mph /  1.6km/h 61% 0.00in /  0mm WeatherDisplay:10.37 W/m2 CLR
10:45 73.5 °F /  23.1 °C 58.3 °F /  14.6 °C 30.30in /  1026hPa Calm   1.0mph /  1.6km/h 59% 0.00in /  0mm WeatherDisplay:10.37 W/m2 CLR
11:00 75.0 °F /  23.9 °C 56.7 °F /  13.7 °C 30.30in /  1026hPa Calm   2.0mph /  3.2km/h 53% 0.00in /  0mm WeatherDisplay:10.37 W/m2 CLR
11:15 76.4 °F /  24.7 °C 58.5 °F /  14.7 °C 30.30in /  1026hPa Calm   1.0mph /  1.6km/h 54% 0.00in /  0mm WeatherDisplay:10.37 W/m2 CLR
11:30 77.7 °F /  25.4 °C 56.5 °F /  13.6 °C 30.29in /  1025.6hPa Calm   2.0mph /  3.2km/h 48% 0.00in /  0mm WeatherDisplay:10.37 W/m2 CLR
11:45 78.8 °F /  26 °C 59.1 °F /  15.1 °C 30.29in /  1025.6hPa Calm   3.0mph /  4.8km/h 51% 0.00in /  0mm WeatherDisplay:10.37 W/m2 CLR
12:00 79.9 °F /  26.6 °C 57.2 °F /  14 °C 30.29in /  1025.6hPa SSE 1.0mph /  1.6km/h 2.0mph /  3.2km/h 46% 0.00in /  0mm WeatherDisplay:10.37 W/m2 CLR
12:15 80.1 °F /  26.7 °C 56.8 °F /  13.8 °C 30.29in /  1025.6hPa West 1.0mph /  1.6km/h 2.0mph /  3.2km/h 45% 0.00in /  0mm WeatherDisplay:10.37 W/m2 CLR
12:30 81.1 °F /  27.3 °C 56.5 °F /  13.6 °C 30.28in /  1025.3hPa Calm   3.0mph /  4.8km/h 43% 0.00in /  0mm WeatherDisplay:10.37 W/m2 CLR
12:45 81.3 °F /  27.4 °C 56.0 °F /  13.3 °C 30.27in /  1024.9hPa Calm   5.0mph /  8km/h 42% 0.00in /  0mm WeatherDisplay:10.37 W/m2 CLR
13:00 81.8 °F /  27.7 °C 56.5 °F /  13.6 °C 30.27in /  1024.9hPa WNW 1.0mph /  1.6km/h 2.0mph /  3.2km/h 42% 0.00in /  0mm WeatherDisplay:10.37 W/m2 CLR
13:15 82.6 °F /  28.1 °C 55.8 °F /  13.2 °C 30.26in /  1024.6hPa Calm   2.0mph /  3.2km/h 40% 0.00in /  0mm WeatherDisplay:10.37 W/m2 CLR
13:30 83.6 °F /  28.7 °C 57.4 °F /  14.1 °C 30.26in /  1024.6hPa Calm   3.0mph /  4.8km/h 41% 0.00in /  0mm WeatherDisplay:10.37 W/m2 CLR
13:45 82.3 °F /  27.9 °C 54.2 °F /  12.3 °C 30.26in /  1024.6hPa Calm   3.0mph /  4.8km/h 38% 0.00in /  0mm WeatherDisplay:10.37 W/m2 CLR
14:00 83.1 °F /  28.4 °C 54.8 °F /  12.7 °C 30.25in /  1024.3hPa West 1.0mph /  1.6km/h 5.0mph /  8km/h 38% 0.00in /  0mm WeatherDisplay:10.37 W/m2 CLR
14:15 84.2 °F /  29 °C 55.1 °F /  12.8 °C 30.25in /  1024.3hPa Calm   3.0mph /  4.8km/h 37% 0.00in /  0mm WeatherDisplay:10.37 W/m2 CLR
14:30 83.8 °F /  28.8 °C 53.3 °F /  11.8 °C 30.24in /  1023.9hPa NW 1.0mph /  1.6km/h 5.0mph /  8km/h 35% 0.00in /  0mm WeatherDisplay:10.37 W/m2 CLR
14:45 82.8 °F /  28.2 °C 53.1 °F /  11.7 °C 30.24in /  1023.9hPa WNW 1.0mph /  1.6km/h 2.0mph /  3.2km/h 36% 0.00in /  0mm WeatherDisplay:10.37 W/m2 CLR
15:00 80.9 °F /  27.2 °C 52.9 °F /  11.6 °C 30.23in /  1023.6hPa Calm   2.0mph /  3.2km/h 38% 0.00in /  0mm WeatherDisplay:10.37 W/m2 CLR
15:15 80.1 °F /  26.7 °C 54.3 °F /  12.4 °C 30.22in /  1023.2hPa Calm   2.0mph /  3.2km/h 41% 0.00in /  0mm WeatherDisplay:10.37 W/m2 CLR
15:30 80.8 °F /  27.1 °C 51.4 °F /  10.8 °C 30.21in /  1022.9hPa Calm   2.0mph /  3.2km/h 36% 0.00in /  0mm WeatherDisplay:10.37 W/m2 CLR
15:45 80.3 °F /  26.8 °C 50.9 °F /  10.5 °C 30.21in /  1022.9hPa Calm   2.0mph /  3.2km/h 36% 0.00in /  0mm WeatherDisplay:10.37 W/m2 CLR
16:00 81.1 °F /  27.3 °C 53.1 °F /  11.7 °C 30.20in /  1022.6hPa Calm   2.0mph /  3.2km/h 38% 0.00in /  0mm WeatherDisplay:10.37 W/m2 CLR
16:15 80.5 °F /  26.9 °C 51.1 °F /  10.6 °C 30.19in /  1022.2hPa Calm   3.0mph /  4.8km/h 36% 0.00in /  0mm WeatherDisplay:10.37 W/m2 CLR
16:30 79.8 °F /  26.6 °C 50.5 °F /  10.3 °C 30.19in /  1022.2hPa Calm   2.0mph /  3.2km/h 36% 0.00in /  0mm WeatherDisplay:10.37 W/m2 CLR
16:45 79.7 °F /  26.5 °C 51.9 °F /  11.1 °C 30.18in /  1021.9hPa Calm   2.0mph /  3.2km/h 38% 0.00in /  0mm WeatherDisplay:10.37 W/m2 CLR
17:00 79.0 °F /  26.1 °C 51.9 °F /  11.1 °C 30.18in /  1021.9hPa Calm     39% 0.00in /  0mm WeatherDisplay:10.37 W/m2 CLR
17:15 79.5 °F /  26.4 °C 50.2 °F /  10.1 °C 30.18in /  1021.9hPa Calm   1.0mph /  1.6km/h 36% 0.00in /  0mm WeatherDisplay:10.37 W/m2 CLR
17:30 79.4 °F /  26.3 °C 50.9 °F /  10.5 °C 30.18in /  1021.9hPa Calm   1.0mph /  1.6km/h 37% 0.00in /  0mm WeatherDisplay:10.37 W/m2 CLR
17:45 78.3 °F /  25.7 °C 52.7 °F /  11.5 °C 30.18in /  1021.9hPa Calm     41% 0.00in /  0mm WeatherDisplay:10.37 W/m2 CLR
18:00 77.9 °F /  25.5 °C 52.3 °F /  11.3 °C 30.18in /  1021.9hPa Calm     41% 0.00in /  0mm WeatherDisplay:10.37 W/m2 CLR
18:15 78.1 °F /  25.6 °C 51.8 °F /  11 °C 30.18in /  1021.9hPa Calm     40% 0.00in /  0mm WeatherDisplay:10.37 W/m2 CLR
18:30 78.0 °F /  25.6 °C 51.7 °F /  10.9 °C 30.18in /  1021.9hPa Calm     40% 0.00in /  0mm WeatherDisplay:10.37 W/m2 CLR
18:45 77.7 °F /  25.4 °C 53.4 °F /  11.9 °C 30.17in /  1021.6hPa Calm     43% 0.00in /  0mm WeatherDisplay:10.37 W/m2 CLR
19:00 76.8 °F /  24.9 °C 53.2 °F /  11.8 °C 30.18in /  1021.9hPa Calm     44% 0.00in /  0mm WeatherDisplay:10.37 W/m2 CLR
19:15 76.3 °F /  24.6 °C 52.8 °F /  11.6 °C 30.18in /  1021.9hPa Calm     44% 0.00in /  0mm WeatherDisplay:10.37 W/m2 CLR
19:30 75.7 °F /  24.3 °C 52.9 °F /  11.6 °C 30.18in /  1021.9hPa Calm     45% 0.00in /  0mm WeatherDisplay:10.37 W/m2 CLR
19:45 74.9 °F /  23.8 °C 52.7 °F /  11.5 °C 30.18in /  1021.9hPa Calm     46% 0.00in /  0mm WeatherDisplay:10.37 W/m2 CLR
20:00 74.0 °F /  23.3 °C 53.1 °F /  11.7 °C 30.18in /  1021.9hPa Calm     48% 0.00in /  0mm WeatherDisplay:10.37 W/m2 CLR
20:15 72.8 °F /  22.7 °C 52.5 °F /  11.4 °C 30.19in /  1022.2hPa Calm     49% 0.00in /  0mm WeatherDisplay:10.37 W/m2 CLR
20:30 71.7 °F /  22.1 °C 53.7 °F /  12.1 °C 30.19in /  1022.2hPa Calm     53% 0.00in /  0mm WeatherDisplay:10.37 W/m2 CLR
20:45 70.8 °F /  21.6 °C 53.8 °F /  12.1 °C 30.19in /  1022.2hPa Calm     55% 0.00in /  0mm WeatherDisplay:10.37 W/m2 CLR
21:00 70.0 °F /  21.1 °C 54.5 °F /  12.5 °C 30.20in /  1022.6hPa Calm     58% 0.00in /  0mm WeatherDisplay:10.37 W/m2 CLR
21:15 69.3 °F /  20.7 °C 53.9 °F /  12.2 °C 30.20in /  1022.6hPa Calm     58% 0.00in /  0mm WeatherDisplay:10.37 W/m2 CLR
21:30 68.6 °F /  20.3 °C 54.6 °F /  12.6 °C 30.21in /  1022.9hPa Calm     61% 0.00in /  0mm WeatherDisplay:10.37 W/m2 CLR
21:45 68.1 °F /  20.1 °C 54.1 °F /  12.3 °C 30.21in /  1022.9hPa Calm     61% 0.00in /  0mm WeatherDisplay:10.37 W/m2 CLR
22:00 68.0 °F /  20 °C 55.4 °F /  13 °C 30.22in /  1023.2hPa Calm     64% 0.00in /  0mm WeatherDisplay:10.37 W/m2 CLR
22:15 67.7 °F /  19.8 °C 54.6 °F /  12.6 °C 30.22in /  1023.2hPa Calm     63% 0.00in /  0mm WeatherDisplay:10.37 W/m2 CLR
22:30 67.4 °F /  19.7 °C 55.2 °F /  12.9 °C 30.22in /  1023.2hPa Calm     65% 0.00in /  0mm WeatherDisplay:10.37 W/m2 CLR
22:45 66.9 °F /  19.4 °C 54.7 °F /  12.6 °C 30.22in /  1023.2hPa Calm     65% 0.00in /  0mm WeatherDisplay:10.37 W/m2 CLR
23:00 66.2 °F /  19 °C 54.9 °F /  12.7 °C 30.23in /  1023.6hPa Calm     67% 0.00in /  0mm WeatherDisplay:10.37 W/m2 CLR
23:15 65.7 °F /  18.7 °C 54.4 °F /  12.4 °C 30.23in /  1023.6hPa Calm     67% 0.00in /  0mm WeatherDisplay:10.37 W/m2 CLR
23:30 65.1 °F /  18.4 °C 55.1 °F /  12.8 °C 30.23in /  1023.6hPa Calm     70% 0.00in /  0mm WeatherDisplay:10.37 W/m2 CLR
23:45 64.6 °F /  18.1 °C 55.0 °F /  12.8 °C 30.23in /  1023.6hPa Calm     71% 0.00in /  0mm WeatherDisplay:10.37 W/m2 CLR
Piedmont Bend
Compliments of Weather Underground - 4 mb